Time,TemperatureF,DewpointF,PressureIn,WindDirection,WindDirectionDegrees,WindSpeedMPH,WindSpeedGustMPH,Humidity,HourlyPrecipIn,Conditions,Clouds,dailyrainin,SoftwareType,DateUTC
2013-10-25 00:00:00,50.1,45.5,30.15,NW,317,1.0,1.0,84,0.00,,,0.00,Wunderground v.1.15,2013-10-25 04:00:00,
2013-10-25 00:05:00,49.6,45.0,30.16,NNW,342,1.0,1.0,84,0.00,,,0.00,Wunderground v.1.15,2013-10-25 04:05:00,
2013-10-25 00:10:00,49.3,44.7,30.16,North,352,1.0,1.0,84,0.00,,,0.00,Wunderground v.1.15,2013-10-25 04:10:00,
2013-10-25 00:15:00,49.2,44.3,30.16,North,352,1.0,2.0,83,0.00,,,0.00,Wunderground v.1.15,2013-10-25 04:15:00,
2013-10-25 00:20:00,49.1,43.8,30.16,NNW,342,1.0,1.0,82,0.00,,,0.00,Wunderground v.1.15,2013-10-25 04:20:00,
2013-10-25 00:25:00,49.1,44.2,30.15,NNW,342,1.0,2.0,83,0.00,,,0.00,Wunderground v.1.15,2013-10-25 04:25:00,
2013-10-25 00:30:00,49.1,44.2,30.15,NNW,343,2.0,2.0,83,0.00,,,0.00,Wunderground v.1.15,2013-10-25 04:30:00,
2013-10-25 00:35:00,49.1,44.5,30.16,NNW,332,2.0,2.0,84,0.00,,,0.00,Wunderground v.1.15,2013-10-25 04:35:00,
2013-10-25 00:40:00,49.0,44.1,30.15,NNW,332,2.0,2.0,83,0.00,,,0.00,Wunderground v.1.15,2013-10-25 04:40:00,
2013-10-25 00:45:00,48.8,44.2,30.15,NNW,332,2.0,2.0,84,0.00,,,0.00,Wunderground v.1.15,2013-10-25 04:45:00,
2013-10-25 00:50:00,48.8,44.8,30.15,NNW,333,2.0,2.0,86,0.00,,,0.00,Wunderground v.1.15,2013-10-25 04:50:00,
2013-10-25 00:55:00,48.8,45.1,30.15,NNW,333,2.0,2.0,87,0.00,,,0.00,Wunderground v.1.15,2013-10-25 04:55:00,
2013-10-25 01:00:00,48.7,45.3,30.15,NNW,333,1.0,2.0,88,0.00,,,0.00,Wunderground v.1.15,2013-10-25 05:00:00,
2013-10-25 01:10:00,48.5,45.1,30.15,NNW,333,1.0,1.0,88,0.00,,,0.00,Wunderground v.1.15,2013-10-25 05:10:00,
2013-10-25 01:20:00,48.7,45.3,30.15,NNW,333,1.0,1.0,88,0.00,,,0.00,Wunderground v.1.15,2013-10-25 05:20:00,
2013-10-25 01:25:00,48.7,45.0,30.15,NNW,333,1.0,1.0,87,0.00,,,0.00,Wunderground v.1.15,2013-10-25 05:25:00,
2013-10-25 01:35:00,48.7,44.7,30.15,NNW,333,1.0,2.0,86,0.00,,,0.00,Wunderground v.1.15,2013-10-25 05:35:00,
2013-10-25 01:40:00,48.7,44.7,30.15,NNW,333,1.0,1.0,86,0.00,,,0.00,Wunderground v.1.15,2013-10-25 05:40:00,
2013-10-25 01:45:00,48.9,44.6,30.15,NNW,340,1.0,1.0,85,0.00,,,0.00,Wunderground v.1.15,2013-10-25 05:45:00,
2013-10-25 01:50:00,49.0,44.7,30.15,NNW,346,1.0,1.0,85,0.00,,,0.00,Wunderground v.1.15,2013-10-25 05:50:00,
2013-10-25 02:00:00,49.4,44.8,30.15,North,6,1.0,1.0,84,0.00,,,0.00,Wunderground v.1.15,2013-10-25 06:00:00,
2013-10-25 02:10:00,49.1,43.2,30.16,NNE,15,4.0,6.0,80,0.00,,,0.00,Wunderground v.1.15,2013-10-25 06:10:00,
2013-10-25 02:20:00,49.0,42.4,30.16,NNW,346,6.0,6.0,78,0.00,,,0.00,Wunderground v.1.15,2013-10-25 06:20:00,
2013-10-25 02:25:00,49.2,42.3,30.16,ENE,63,6.0,6.0,77,0.00,,,0.00,Wunderground v.1.15,2013-10-25 06:25:00,
2013-10-25 02:35:00,49.6,42.3,30.16,North,9,4.0,5.0,76,0.00,,,0.00,Wunderground v.1.15,2013-10-25 06:35:00,
2013-10-25 02:45:00,49.6,42.0,30.16,North,6,5.0,6.0,75,0.00,,,0.00,Wunderground v.1.15,2013-10-25 06:45:00,
2013-10-25 02:50:00,49.4,42.1,30.16,NE,47,5.0,6.0,76,0.00,,,0.00,Wunderground v.1.15,2013-10-25 06:50:00,
2013-10-25 03:00:00,49.4,42.5,30.15,East,88,4.0,4.0,77,0.00,,,0.00,Wunderground v.1.15,2013-10-25 07:00:00,
2013-10-25 03:10:00,49.6,42.3,30.16,NE,37,4.0,4.0,76,0.00,,,0.00,Wunderground v.1.15,2013-10-25 07:10:00,
2013-10-25 03:15:00,49.3,42.1,30.16,NNE,30,5.0,5.0,76,0.00,,,0.00,Wunderground v.1.15,2013-10-25 07:15:00,
2013-10-25 03:20:00,49.1,41.9,30.17,NNE,12,5.0,6.0,76,0.00,,,0.00,Wunderground v.1.15,2013-10-25 07:20:00,
2013-10-25 03:30:00,48.8,41.6,30.16,ESE,108,4.0,4.0,76,0.00,,,0.00,Wunderground v.1.15,2013-10-25 07:30:00,
2013-10-25 03:35:00,48.8,41.6,30.16,NNE,19,4.0,5.0,76,0.00,,,0.00,Wunderground v.1.15,2013-10-25 07:35:00,
2013-10-25 03:40:00,48.9,41.7,30.17,North,356,4.0,5.0,76,0.00,,,0.00,Wunderground v.1.15,2013-10-25 07:40:00,
2013-10-25 03:45:00,48.8,41.6,30.16,NNE,30,4.0,5.0,76,0.00,,,0.00,Wunderground v.1.15,2013-10-25 07:45:00,
2013-10-25 03:50:00,48.7,41.5,30.16,NNE,33,3.0,3.0,76,0.00,,,0.00,Wunderground v.1.15,2013-10-25 07:50:00,
2013-10-25 03:55:00,48.7,41.5,30.17,NE,35,3.0,4.0,76,0.00,,,0.00,Wunderground v.1.15,2013-10-25 07:55:00,
2013-10-25 04:00:00,48.7,41.1,30.17,NE,37,4.0,5.0,75,0.00,,,0.00,Wunderground v.1.15,2013-10-25 08:00:00,
2013-10-25 04:10:00,48.3,41.4,30.17,NNE,29,5.0,5.0,77,0.00,,,0.00,Wunderground v.1.15,2013-10-25 08:10:00,
2013-10-25 04:15:00,48.1,41.2,30.17,North,349,5.0,5.0,77,0.00,,,0.00,Wunderground v.1.15,2013-10-25 08:15:00,
2013-10-25 04:20:00,48.0,41.1,30.17,NE,37,5.0,5.0,77,0.00,,,0.00,Wunderground v.1.15,2013-10-25 08:20:00,
2013-10-25 04:25:00,48.1,40.9,30.17,NE,56,6.0,6.0,76,0.00,,,0.00,Wunderground v.1.15,2013-10-25 08:25:00,
2013-10-25 04:35:00,48.2,40.6,30.17,NNE,33,5.0,8.0,75,0.00,,,0.00,Wunderground v.1.15,2013-10-25 08:35:00,
2013-10-25 04:40:00,48.3,40.4,30.17,North,356,5.0,5.0,74,0.00,,,0.00,Wunderground v.1.15,2013-10-25 08:40:00,
2013-10-25 04:45:00,48.3,40.4,30.17,NNE,32,5.0,5.0,74,0.00,,,0.00,Wunderground v.1.15,2013-10-25 08:45:00,
2013-10-25 04:50:00,48.3,40.4,30.17,NNE,20,5.0,5.0,74,0.00,,,0.00,Wunderground v.1.15,2013-10-25 08:50:00,
2013-10-25 04:55:00,48.3,40.0,30.17,NE,51,5.0,7.0,73,0.00,,,0.00,Wunderground v.1.15,2013-10-25 08:55:00,
2013-10-25 05:00:00,48.3,40.0,30.17,NE,56,5.0,5.0,73,0.00,,,0.00,Wunderground v.1.15,2013-10-25 09:00:00,
2013-10-25 05:10:00,48.4,40.1,30.17,NNE,15,5.0,5.0,73,0.00,,,0.00,Wunderground v.1.15,2013-10-25 09:10:00,
2013-10-25 05:20:00,48.3,40.4,30.18,NE,54,5.0,5.0,74,0.00,,,0.00,Wunderground v.1.15,2013-10-25 09:20:00,
2013-10-25 05:30:00,48.1,39.9,30.18,ENE,58,5.0,6.0,73,0.00,,,0.00,Wunderground v.1.15,2013-10-25 09:30:00,
2013-10-25 05:35:00,48.1,39.5,30.18,ENE,65,5.0,6.0,72,0.00,,,0.00,Wunderground v.1.15,2013-10-25 09:35:00,
2013-10-25 05:45:00,48.1,39.5,30.18,NE,53,5.0,5.0,72,0.00,,,0.00,Wunderground v.1.15,2013-10-25 09:45:00,
2013-10-25 05:55:00,48.1,39.9,30.18,ENE,60,5.0,7.0,73,0.00,,,0.00,Wunderground v.1.15,2013-10-25 09:55:00,
2013-10-25 06:00:00,48.0,39.8,30.19,NNE,23,5.0,6.0,73,0.00,,,0.00,Wunderground v.1.15,2013-10-25 10:00:00,
2013-10-25 06:10:00,47.6,39.4,30.19,NNE,30,6.0,7.0,73,0.00,,,0.00,Wunderground v.1.15,2013-10-25 10:10:00,
2013-10-25 06:15:00,47.6,39.0,30.19,NNW,348,6.0,7.0,72,0.00,,,0.00,Wunderground v.1.15,2013-10-25 10:15:00,
2013-10-25 06:20:00,47.7,39.1,30.19,North,358,6.0,9.0,72,0.00,,,0.00,Wunderground v.1.15,2013-10-25 10:20:00,
2013-10-25 06:25:00,47.6,39.0,30.19,NNE,30,7.0,9.0,72,0.00,,,0.00,Wunderground v.1.15,2013-10-25 10:25:00,
2013-10-25 06:30:00,47.6,39.0,30.20,NE,52,7.0,7.0,72,0.00,,,0.00,Wunderground v.1.15,2013-10-25 10:30:00,
2013-10-25 06:40:00,47.5,38.9,30.20,NE,35,7.0,7.0,72,0.00,,,0.00,Wunderground v.1.15,2013-10-25 10:40:00,
2013-10-25 06:45:00,47.4,38.8,30.20,NE,54,8.0,8.0,72,0.00,,,0.00,Wunderground v.1.15,2013-10-25 10:45:00,
2013-10-25 06:50:00,47.4,38.8,30.20,ENE,60,7.0,7.0,72,0.00,,,0.00,Wunderground v.1.15,2013-10-25 10:50:00,
2013-10-25 06:55:00,47.5,38.6,30.21,North,356,7.0,7.0,71,0.00,,,0.00,Wunderground v.1.15,2013-10-25 10:55:00,
2013-10-25 07:00:00,47.5,38.6,30.21,NE,51,7.0,7.0,71,0.00,,,0.00,Wunderground v.1.15,2013-10-25 11:00:00,
2013-10-25 07:10:00,47.4,38.5,30.22,ENE,64,8.0,11.0,71,0.00,,,0.00,Wunderground v.1.15,2013-10-25 11:10:00,
2013-10-25 07:15:00,47.3,38.4,30.22,NNE,23,7.0,12.0,71,0.00,,,0.00,Wunderground v.1.15,2013-10-25 11:15:00,
2013-10-25 07:20:00,47.3,38.4,30.21,ENE,61,7.0,10.0,71,0.00,,,0.00,Wunderground v.1.15,2013-10-25 11:20:00,
2013-10-25 07:25:00,47.2,38.3,30.22,North,9,7.0,10.0,71,0.00,,,0.00,Wunderground v.1.15,2013-10-25 11:25:00,
2013-10-25 07:30:00,47.2,38.3,30.22,North,360,7.0,10.0,71,0.00,,,0.00,Wunderground v.1.15,2013-10-25 11:30:00,
2013-10-25 07:40:00,47.0,38.4,30.23,NNE,33,9.0,13.0,72,0.00,,,0.00,Wunderground v.1.15,2013-10-25 11:40:00,
2013-10-25 07:45:00,46.9,38.3,30.23,NNE,33,9.0,13.0,72,0.00,,,0.00,Wunderground v.1.15,2013-10-25 11:45:00,
2013-10-25 07:50:00,46.9,38.3,30.23,NNE,21,9.0,9.0,72,0.00,,,0.00,Wunderground v.1.15,2013-10-25 11:50:00,
2013-10-25 07:55:00,46.9,38.3,30.23,NNE,13,9.0,9.0,72,0.00,,,0.00,Wunderground v.1.15,2013-10-25 11:55:00,
2013-10-25 08:00:00,46.9,38.3,30.23,NE,49,9.0,9.0,72,0.00,,,0.00,Wunderground v.1.15,2013-10-25 12:00:00,
2013-10-25 08:10:00,47.1,38.2,30.23,NE,44,7.0,7.0,71,0.00,,,0.00,Wunderground v.1.15,2013-10-25 12:10:00,
2013-10-25 08:15:00,47.1,37.8,30.24,NE,47,8.0,10.0,70,0.00,,,0.00,Wunderground v.1.15,2013-10-25 12:15:00,
2013-10-25 08:25:00,47.2,38.3,30.24,East,86,8.0,10.0,71,0.00,,,0.00,Wunderground v.1.15,2013-10-25 12:25:00,
2013-10-25 08:35:00,47.2,37.5,30.25,NNE,30,9.0,16.0,69,0.00,,,0.00,Wunderground v.1.15,2013-10-25 12:35:00,
2013-10-25 08:45:00,47.2,37.9,30.25,North,6,8.0,10.0,70,0.00,,,0.00,Wunderground v.1.15,2013-10-25 12:45:00,
2013-10-25 08:50:00,47.1,37.4,30.26,NNE,15,8.0,8.0,69,0.00,,,0.00,Wunderground v.1.15,2013-10-25 12:50:00,
2013-10-25 08:55:00,47.1,37.4,30.26,ENE,58,8.0,8.0,69,0.00,,,0.00,Wunderground v.1.15,2013-10-25 12:55:00,
2013-10-25 09:00:00,47.2,37.9,30.26,NNE,27,7.0,7.0,70,0.00,,,0.00,Wunderground v.1.15,2013-10-25 13:00:00,
2013-10-25 09:10:00,47.3,38.0,30.26,NNE,25,7.0,11.0,70,0.00,,,0.00,Wunderground v.1.15,2013-10-25 13:10:00,
2013-10-25 09:20:00,47.7,38.0,30.26,NNW,347,8.0,8.0,69,0.00,,,0.00,Wunderground v.1.15,2013-10-25 13:20:00,
2013-10-25 09:30:00,47.7,37.7,30.27,North,356,7.0,7.0,68,0.00,,,0.00,Wunderground v.1.15,2013-10-25 13:30:00,
2013-10-25 09:35:00,47.9,38.2,30.27,NNE,33,7.0,7.0,69,0.00,,,0.00,Wunderground v.1.15,2013-10-25 13:35:00,
2013-10-25 09:40:00,48.1,38.0,30.27,NNE,21,6.0,7.0,68,0.00,,,0.00,Wunderground v.1.15,2013-10-25 13:40:00,
2013-10-25 09:45:00,48.4,37.9,30.27,NE,43,6.0,7.0,67,0.00,,,0.00,Wunderground v.1.15,2013-10-25 13:45:00,
2013-10-25 09:50:00,48.8,38.3,30.27,NNE,13,6.0,6.0,67,0.00,,,0.00,Wunderground v.1.15,2013-10-25 13:50:00,
2013-10-25 09:55:00,49.2,37.5,30.27,ENE,77,6.0,6.0,64,0.00,,,0.00,Wunderground v.1.15,2013-10-25 13:55:00,
2013-10-25 10:00:00,49.1,37.0,30.27,NNE,27,7.0,7.0,63,0.00,,,0.00,Wunderground v.1.15,2013-10-25 14:00:00,
2013-10-25 10:10:00,48.9,36.4,30.27,North,4,8.0,10.0,62,0.00,,,0.00,Wunderground v.1.15,2013-10-25 14:10:00,
2013-10-25 10:15:00,49.0,36.5,30.27,NNE,33,9.0,13.0,62,0.00,,,0.00,Wunderground v.1.15,2013-10-25 14:15:00,
2013-10-25 10:20:00,49.2,36.7,30.27,ENE,58,9.0,9.0,62,0.00,,,0.00,Wunderground v.1.15,2013-10-25 14:20:00,
2013-10-25 10:25:00,49.4,36.5,30.27,NNE,30,9.0,10.0,61,0.00,,,0.00,Wunderground v.1.15,2013-10-25 14:25:00,
2013-10-25 10:30:00,49.9,37.4,30.27,North,11,9.0,10.0,62,0.00,,,0.00,Wunderground v.1.15,2013-10-25 14:30:00,
2013-10-25 10:35:00,50.0,37.5,30.27,NNE,27,7.0,10.0,62,0.00,,,0.00,Wunderground v.1.15,2013-10-25 14:35:00,
2013-10-25 10:40:00,49.7,37.6,30.27,NNE,29,7.0,12.0,63,0.00,,,0.00,Wunderground v.1.15,2013-10-25 14:40:00,
2013-10-25 10:45:00,49.2,35.9,30.27,NNE,17,10.0,12.0,60,0.00,,,0.00,Wunderground v.1.15,2013-10-25 14:45:00,
2013-10-25 10:50:00,49.1,36.2,30.27,NNE,30,11.0,11.0,61,0.00,,,0.00,Wunderground v.1.15,2013-10-25 14:50:00,
2013-10-25 10:55:00,49.9,38.2,30.27,NNE,30,9.0,11.0,64,0.00,,,0.00,Wunderground v.1.15,2013-10-25 14:55:00,
2013-10-25 11:00:00,50.1,37.2,30.27,ENE,69,8.0,8.0,61,0.00,,,0.00,Wunderground v.1.15,2013-10-25 15:00:00,
2013-10-25 11:10:00,51.0,38.8,30.27,NNE,25,8.0,8.0,63,0.00,,,0.00,Wunderground v.1.15,2013-10-25 15:10:00,
2013-10-25 11:20:00,50.4,36.6,30.27,NNE,30,10.0,10.0,59,0.00,,,0.00,Wunderground v.1.15,2013-10-25 15:20:00,
2013-10-25 11:30:00,50.7,35.6,30.27,NE,53,9.0,9.0,56,0.00,,,0.00,Wunderground v.1.15,2013-10-25 15:30:00,
2013-10-25 11:35:00,50.8,36.1,30.27,NE,50,9.0,11.0,57,0.00,,,0.00,Wunderground v.1.15,2013-10-25 15:35:00,
2013-10-25 11:40:00,51.4,36.2,30.27,ENE,65,8.0,8.0,56,0.00,,,0.00,Wunderground v.1.15,2013-10-25 15:40:00,
2013-10-25 11:45:00,52.0,36.8,30.27,North,356,7.0,14.0,56,0.00,,,0.00,Wunderground v.1.15,2013-10-25 15:45:00,
2013-10-25 11:50:00,52.6,37.8,30.27,NE,44,7.0,10.0,57,0.00,,,0.00,Wunderground v.1.15,2013-10-25 15:50:00,
2013-10-25 11:55:00,52.4,34.8,30.27,NNE,33,10.0,17.0,51,0.00,,,0.00,Wunderground v.1.15,2013-10-25 15:55:00,
2013-10-25 12:00:00,52.2,35.1,30.27,NNE,26,11.0,11.0,52,0.00,,,0.00,Wunderground v.1.15,2013-10-25 16:00:00,
2013-10-25 12:15:00,52.8,37.1,30.27,North,352,9.0,9.0,55,0.00,,,0.00,Wunderground v.1.15,2013-10-25 16:15:00,
2013-10-25 12:20:00,53.2,36.5,30.27,NE,36,8.0,10.0,53,0.00,,,0.00,Wunderground v.1.15,2013-10-25 16:20:00,
2013-10-25 12:30:00,53.7,37.4,30.26,North,1,8.0,10.0,54,0.00,,,0.00,Wunderground v.1.15,2013-10-25 16:30:00,
2013-10-25 12:35:00,53.9,35.7,30.26,North,11,8.0,10.0,50,0.00,,,0.00,Wunderground v.1.15,2013-10-25 16:35:00,
2013-10-25 12:45:00,54.6,36.3,30.26,NW,316,8.0,10.0,50,0.00,,,0.00,Wunderground v.1.15,2013-10-25 16:45:00,
2013-10-25 12:55:00,54.3,35.5,30.26,NNE,27,9.0,12.0,49,0.00,,,0.00,Wunderground v.1.15,2013-10-25 16:55:00,
2013-10-25 13:00:00,54.5,36.2,30.26,NE,44,10.0,10.0,50,0.00,,,0.00,Wunderground v.1.15,2013-10-25 17:00:00,
2013-10-25 13:10:00,54.9,35.6,30.26,ENE,78,9.0,9.0,48,0.00,,,0.00,Wunderground v.1.15,2013-10-25 17:10:00,
2013-10-25 13:15:00,54.8,35.5,30.26,North,351,9.0,9.0,48,0.00,,,0.00,Wunderground v.1.15,2013-10-25 17:15:00,
2013-10-25 13:25:00,54.8,36.0,30.26,NNW,333,8.0,13.0,49,0.00,,,0.00,Wunderground v.1.15,2013-10-25 17:25:00,
2013-10-25 13:30:00,54.7,35.9,30.25,WNW,301,8.0,8.0,49,0.00,,,0.00,Wunderground v.1.15,2013-10-25 17:30:00,
2013-10-25 13:35:00,55.1,36.3,30.25,North,351,7.0,9.0,49,0.00,,,0.00,Wunderground v.1.15,2013-10-25 17:35:00,
2013-10-25 13:40:00,55.6,35.7,30.25,NNE,26,8.0,11.0,47,0.00,,,0.00,Wunderground v.1.15,2013-10-25 17:40:00,
2013-10-25 13:45:00,55.9,36.5,30.25,North,8,8.0,11.0,48,0.00,,,0.00,Wunderground v.1.15,2013-10-25 17:45:00,
2013-10-25 13:55:00,56.3,35.8,30.25,NNE,23,8.0,10.0,46,0.00,,,0.00,Wunderground v.1.15,2013-10-25 17:55:00,
2013-10-25 14:00:00,56.5,36.0,30.25,North,349,9.0,9.0,46,0.00,,,0.00,Wunderground v.1.15,2013-10-25 18:00:00,
2013-10-25 14:10:00,56.6,35.5,30.25,NNE,31,7.0,8.0,45,0.00,,,0.00,Wunderground v.1.15,2013-10-25 18:10:00,
2013-10-25 14:15:00,56.6,35.5,30.25,NNE,23,9.0,9.0,45,0.00,,,0.00,Wunderground v.1.15,2013-10-25 18:15:00,
2013-10-25 14:25:00,56.8,35.1,30.25,NNW,345,9.0,10.0,44,0.00,,,0.00,Wunderground v.1.15,2013-10-25 18:25:00,
2013-10-25 14:35:00,56.8,35.1,30.25,North,353,9.0,12.0,44,0.00,,,0.00,Wunderground v.1.15,2013-10-25 18:35:00,
2013-10-25 14:50:00,56.9,34.6,30.25,NNE,30,9.0,9.0,43,0.00,,,0.00,Wunderground v.1.15,2013-10-25 18:50:00,
2013-10-25 14:55:00,57.1,34.2,30.25,NE,51,9.0,11.0,42,0.00,,,0.00,Wunderground v.1.15,2013-10-25 18:55:00,
2013-10-25 15:00:00,57.3,34.4,30.24,NNE,32,8.0,12.0,42,0.00,,,0.00,Wunderground v.1.15,2013-10-25 19:00:00,
2013-10-25 15:10:00,57.1,33.6,30.24,North,5,10.0,10.0,41,0.00,,,0.00,Wunderground v.1.15,2013-10-25 19:10:00,
2013-10-25 15:15:00,57.1,33.6,30.24,NNE,21,10.0,11.0,41,0.00,,,0.00,Wunderground v.1.15,2013-10-25 19:15:00,
2013-10-25 15:25:00,57.3,34.4,30.25,NNE,25,8.0,11.0,42,0.00,,,0.00,Wunderground v.1.15,2013-10-25 19:25:00,
2013-10-25 15:35:00,57.2,34.9,30.24,North,1,9.0,10.0,43,0.00,,,0.00,Wunderground v.1.15,2013-10-25 19:35:00,
2013-10-25 15:45:00,57.3,35.0,30.24,NNW,347,8.0,8.0,43,0.00,,,0.00,Wunderground v.1.15,2013-10-25 19:45:00,
2013-10-25 15:50:00,57.4,34.5,30.24,NNE,15,7.0,7.0,42,0.00,,,0.00,Wunderground v.1.15,2013-10-25 19:50:00,
2013-10-25 16:00:00,57.2,35.5,30.25,NNW,347,10.0,10.0,44,0.00,,,0.00,Wunderground v.1.15,2013-10-25 20:00:00,
2013-10-25 16:10:00,57.2,35.5,30.25,North,1,8.0,8.0,44,0.00,,,0.00,Wunderground v.1.15,2013-10-25 20:10:00,
2013-10-25 16:15:00,57.4,34.5,30.25,NE,46,8.0,9.0,42,0.00,,,0.00,Wunderground v.1.15,2013-10-25 20:15:00,
2013-10-25 16:20:00,57.2,34.3,30.25,NE,39,8.0,10.0,42,0.00,,,0.00,Wunderground v.1.15,2013-10-25 20:20:00,
2013-10-25 16:30:00,56.9,34.0,30.25,ENE,74,7.0,7.0,42,0.00,,,0.00,Wunderground v.1.15,2013-10-25 20:30:00,
2013-10-25 16:35:00,57.1,34.8,30.25,ENE,60,7.0,7.0,43,0.00,,,0.00,Wunderground v.1.15,2013-10-25 20:35:00,
2013-10-25 16:40:00,56.8,33.9,30.25,ENE,60,7.0,8.0,42,0.00,,,0.00,Wunderground v.1.15,2013-10-25 20:40:00,
2013-10-25 16:45:00,56.7,33.8,30.25,NNE,17,7.0,8.0,42,0.00,,,0.00,Wunderground v.1.15,2013-10-25 20:45:00,
2013-10-25 16:50:00,56.8,35.7,30.25,NNE,20,7.0,9.0,45,0.00,,,0.00,Wunderground v.1.15,2013-10-25 20:50:00,
2013-10-25 17:00:00,56.5,34.8,30.26,NNE,29,6.0,6.0,44,0.00,,,0.00,Wunderground v.1.15,2013-10-25 21:00:00,
2013-10-25 17:10:00,56.3,34.1,30.26,NNW,336,6.0,6.0,43,0.00,,,0.00,Wunderground v.1.15,2013-10-25 21:10:00,
2013-10-25 17:15:00,56.3,34.6,30.26,NNE,16,6.0,6.0,44,0.00,,,0.00,Wunderground v.1.15,2013-10-25 21:15:00,
2013-10-25 17:20:00,56.3,34.6,30.26,NNE,32,6.0,6.0,44,0.00,,,0.00,Wunderground v.1.15,2013-10-25 21:20:00,
2013-10-25 17:30:00,56.1,33.9,30.26,North,9,6.0,10.0,43,0.00,,,0.00,Wunderground v.1.15,2013-10-25 21:30:00,
2013-10-25 17:35:00,56.0,34.4,30.27,NE,41,7.0,10.0,44,0.00,,,0.00,Wunderground v.1.15,2013-10-25 21:35:00,
2013-10-25 17:40:00,55.8,34.2,30.27,NNE,20,7.0,8.0,44,0.00,,,0.00,Wunderground v.1.15,2013-10-25 21:40:00,
2013-10-25 17:45:00,55.7,34.1,30.27,NE,45,7.0,8.0,44,0.00,,,0.00,Wunderground v.1.15,2013-10-25 21:45:00,
2013-10-25 17:50:00,55.5,35.0,30.27,NNE,30,6.0,6.0,46,0.00,,,0.00,Wunderground v.1.15,2013-10-25 21:50:00,
2013-10-25 17:55:00,55.3,35.9,30.27,NNE,15,5.0,6.0,48,0.00,,,0.00,Wunderground v.1.15,2013-10-25 21:55:00,
2013-10-25 18:00:00,55.1,35.7,30.27,NNE,27,4.0,4.0,48,0.00,,,0.00,Wunderground v.1.15,2013-10-25 22:00:00,
2013-10-25 18:10:00,54.0,36.3,30.27,North,11,4.0,5.0,51,0.00,,,0.00,Wunderground v.1.15,2013-10-25 22:10:00,
2013-10-25 18:20:00,53.1,36.4,30.28,North,11,4.0,5.0,53,0.00,,,0.00,Wunderground v.1.15,2013-10-25 22:20:00,
2013-10-25 18:30:00,52.3,37.1,30.28,NNE,18,5.0,5.0,56,0.00,,,0.00,Wunderground v.1.15,2013-10-25 22:30:00,
2013-10-25 18:40:00,51.7,36.9,30.28,NNE,17,4.0,4.0,57,0.00,,,0.00,Wunderground v.1.15,2013-10-25 22:40:00,
2013-10-25 18:45:00,51.4,37.1,30.29,North,11,4.0,4.0,58,0.00,,,0.00,Wunderground v.1.15,2013-10-25 22:45:00,
2013-10-25 18:50:00,51.2,37.4,30.29,NNE,20,4.0,4.0,59,0.00,,,0.00,Wunderground v.1.15,2013-10-25 22:50:00,
2013-10-25 18:55:00,50.9,37.5,30.29,NNE,16,4.0,4.0,60,0.00,,,0.00,Wunderground v.1.15,2013-10-25 22:55:00,
2013-10-25 19:00:00,50.6,37.2,30.29,NNE,20,4.0,4.0,60,0.00,,,0.00,Wunderground v.1.15,2013-10-25 23:00:00,
2013-10-25 19:10:00,50.1,37.2,30.30,NNE,15,4.0,4.0,61,0.00,,,0.00,Wunderground v.1.15,2013-10-25 23:10:00,
2013-10-25 19:25:00,49.0,39.6,30.29,NNE,18,1.0,1.0,70,0.00,,,0.00,Wunderground v.1.15,2013-10-25 23:25:00,
2013-10-25 19:30:00,48.6,39.6,30.30,North,350,2.0,2.0,71,0.00,,,0.00,Wunderground v.1.15,2013-10-25 23:30:00,
2013-10-25 19:35:00,48.3,39.3,30.30,NE,37,1.0,1.0,71,0.00,,,0.00,Wunderground v.1.15,2013-10-25 23:35:00,
2013-10-25 19:40:00,48.1,39.5,30.30,NNE,13,2.0,2.0,72,0.00,,,0.00,Wunderground v.1.15,2013-10-25 23:40:00,
2013-10-25 19:50:00,48.1,38.4,30.30,NNW,346,3.0,3.0,69,0.00,,,0.00,Wunderground v.1.15,2013-10-25 23:50:00,
2013-10-25 19:55:00,48.2,38.5,30.30,North,358,3.0,3.0,69,0.00,,,0.00,Wunderground v.1.15,2013-10-25 23:55:00,
2013-10-25 20:00:00,47.8,39.2,30.30,NNE,27,3.0,3.0,72,0.00,,,0.00,Wunderground v.1.15,2013-10-26 00:00:00,
2013-10-25 20:10:00,47.3,39.4,30.31,NNW,339,3.0,3.0,74,0.00,,,0.00,Wunderground v.1.15,2013-10-26 00:10:00,
2013-10-25 20:20:00,47.4,38.8,30.31,NNE,20,3.0,3.0,72,0.00,,,0.00,Wunderground v.1.15,2013-10-26 00:20:00,
2013-10-25 20:25:00,47.4,38.5,30.31,North,359,3.0,3.0,71,0.00,,,0.00,Wunderground v.1.15,2013-10-26 00:25:00,
2013-10-25 20:30:00,47.5,38.6,30.31,NNE,33,3.0,3.0,71,0.00,,,0.00,Wunderground v.1.15,2013-10-26 00:30:00,
2013-10-25 20:35:00,47.5,37.5,30.31,North,358,3.0,3.0,68,0.00,,,0.00,Wunderground v.1.15,2013-10-26 00:35:00,
2013-10-25 20:40:00,47.3,38.4,30.31,North,11,3.0,3.0,71,0.00,,,0.00,Wunderground v.1.15,2013-10-26 00:40:00,
2013-10-25 20:45:00,46.7,38.5,30.31,North,6,2.0,3.0,73,0.00,,,0.00,Wunderground v.1.15,2013-10-26 00:45:00,
2013-10-25 20:55:00,46.7,37.8,30.31,NE,49,1.0,1.0,71,0.00,,,0.00,Wunderground v.1.15,2013-10-26 00:55:00,
2013-10-25 21:00:00,46.5,38.0,30.31,NE,49,0.0,1.0,72,0.00,,,0.00,Wunderground v.1.15,2013-10-26 01:00:00,
2013-10-25 21:10:00,46.8,37.9,30.31,NE,37,0.0,0.0,71,0.00,,,0.00,Wunderground v.1.15,2013-10-26 01:10:00,
2013-10-25 21:15:00,46.8,37.5,30.31,NNE,30,0.0,0.0,70,0.00,,,0.00,Wunderground v.1.15,2013-10-26 01:15:00,
2013-10-25 21:25:00,46.5,37.6,30.31,NNE,25,1.0,1.0,71,0.00,,,0.00,Wunderground v.1.15,2013-10-26 01:25:00,
2013-10-25 21:30:00,46.4,37.5,30.31,NE,49,1.0,1.0,71,0.00,,,0.00,Wunderground v.1.15,2013-10-26 01:30:00,
2013-10-25 21:35:00,46.5,37.2,30.31,ENE,63,1.0,2.0,70,0.00,,,0.00,Wunderground v.1.15,2013-10-26 01:35:00,
2013-10-25 21:40:00,46.6,37.0,30.31,NNE,33,1.0,1.0,69,0.00,,,0.00,Wunderground v.1.15,2013-10-26 01:40:00,
2013-10-25 21:45:00,46.5,37.2,30.32,NE,35,2.0,2.0,70,0.00,,,0.00,Wunderground v.1.15,2013-10-26 01:45:00,
2013-10-25 21:55:00,46.3,37.4,30.32,NE,37,1.0,2.0,71,0.00,,,0.00,Wunderground v.1.15,2013-10-26 01:55:00,
2013-10-25 22:00:00,46.5,36.9,30.32,NNE,19,2.0,2.0,69,0.00,,,0.00,Wunderground v.1.15,2013-10-26 02:00:00,
2013-10-25 22:10:00,46.3,37.0,30.32,NE,39,2.0,2.0,70,0.00,,,0.00,Wunderground v.1.15,2013-10-26 02:10:00,
2013-10-25 22:15:00,46.1,37.2,30.33,NNE,33,1.0,2.0,71,0.00,,,0.00,Wunderground v.1.15,2013-10-26 02:15:00,
2013-10-25 22:20:00,45.9,37.0,30.33,NNE,33,2.0,3.0,71,0.00,,,0.00,Wunderground v.1.15,2013-10-26 02:20:00,
2013-10-25 22:30:00,45.7,36.8,30.33,NNE,21,2.0,2.0,71,0.00,,,0.00,Wunderground v.1.15,2013-10-26 02:30:00,
2013-10-25 22:35:00,45.5,36.6,30.33,NNE,20,2.0,3.0,71,0.00,,,0.00,Wunderground v.1.15,2013-10-26 02:35:00,
2013-10-25 22:40:00,45.4,36.5,30.33,NE,37,2.0,2.0,71,0.00,,,0.00,Wunderground v.1.15,2013-10-26 02:40:00,
2013-10-25 22:45:00,45.3,36.4,30.33,NNE,27,2.0,3.0,71,0.00,,,0.00,Wunderground v.1.15,2013-10-26 02:45:00,
2013-10-25 22:50:00,45.3,36.8,30.33,NNE,20,2.0,2.0,72,0.00,,,0.00,Wunderground v.1.15,2013-10-26 02:50:00,
2013-10-25 23:00:00,45.3,37.2,30.33,NE,54,2.0,2.0,73,0.00,,,0.00,Wunderground v.1.15,2013-10-26 03:00:00,
2013-10-25 23:10:00,45.1,36.6,30.33,North,11,2.0,2.0,72,0.00,,,0.00,Wunderground v.1.15,2013-10-26 03:10:00,
2013-10-25 23:20:00,44.7,36.2,30.33,NNE,13,2.0,2.0,72,0.00,,,0.00,Wunderground v.1.15,2013-10-26 03:20:00,
2013-10-25 23:30:00,44.4,36.6,30.33,North,9,3.0,3.0,74,0.00,,,0.00,Wunderground v.1.15,2013-10-26 03:30:00,
2013-10-25 23:35:00,44.1,36.3,30.33,NNE,25,3.0,3.0,74,0.00,,,0.00,Wunderground v.1.15,2013-10-26 03:35:00,
2013-10-25 23:40:00,44.0,36.6,30.33,NNE,27,3.0,3.0,75,0.00,,,0.00,Wunderground v.1.15,2013-10-26 03:40:00,
2013-10-25 23:45:00,44.0,36.6,30.33,NNE,20,2.0,3.0,75,0.00,,,0.00,Wunderground v.1.15,2013-10-26 03:45:00,
2013-10-25 23:50:00,43.8,36.4,30.33,NNE,23,2.0,3.0,75,0.00,,,0.00,Wunderground v.1.15,2013-10-26 03:50:00,